createdAt,value
2017-08-24T00:02:20.238Z,86.50
2017-08-24T00:04:48.355Z,86.70
2017-08-24T00:07:16.463Z,86.90
2017-08-24T00:09:44.574Z,86.80
2017-08-24T00:12:12.743Z,87.10
2017-08-24T00:14:40.830Z,87.30
2017-08-24T00:17:09.250Z,87.30
2017-08-24T00:19:37.380Z,87.50
2017-08-24T00:22:05.600Z,87.50
2017-08-24T00:24:33.697Z,87.60
2017-08-24T00:27:01.819Z,87.60
2017-08-24T00:29:30.801Z,88.00
2017-08-24T00:31:59.042Z,87.50
2017-08-24T00:34:27.139Z,87.70
2017-08-24T00:36:55.230Z,87.80
2017-08-24T00:39:23.992Z,88.20
2017-08-24T00:41:52.123Z,88.30
2017-08-24T00:44:21.144Z,88.40
2017-08-24T00:46:50.143Z,88.50
2017-08-24T00:49:18.266Z,88.60
2017-08-24T00:51:46.533Z,88.80
2017-08-24T00:54:14.663Z,88.80
2017-08-24T00:56:42.794Z,88.80
2017-08-24T00:59:10.903Z,89.10
2017-08-24T01:01:39.500Z,89.20
2017-08-24T01:04:09.591Z,89.20
2017-08-24T01:06:37.716Z,89.20
2017-08-24T01:09:05.822Z,89.40
2017-08-24T01:11:33.920Z,89.40
2017-08-24T01:14:02.020Z,89.50
2017-08-24T01:16:30.139Z,89.60
2017-08-24T01:18:59.153Z,89.70
2017-08-24T01:21:27.617Z,89.80
2017-08-24T01:23:55.999Z,89.90
2017-08-24T01:26:24.179Z,89.80
2017-08-24T01:28:52.269Z,90.00
2017-08-24T01:31:22.293Z,90.00
2017-08-24T01:33:50.446Z,89.80
2017-08-24T01:36:18.532Z,90.00
2017-08-24T01:38:46.628Z,90.00
2017-08-24T01:41:14.741Z,90.10
2017-08-24T01:43:43.741Z,90.10
2017-08-24T01:46:12.502Z,89.60
2017-08-24T01:48:40.619Z,88.60
2017-08-24T01:51:08.744Z,88.00
2017-08-24T01:53:36.868Z,84.50
2017-08-24T01:56:05.009Z,83.10
2017-08-24T01:58:33.104Z,81.60
2017-08-24T02:01:02.144Z,80.90
2017-08-24T02:03:30.240Z,80.70
2017-08-24T02:05:58.356Z,80.50
2017-08-24T02:08:26.479Z,80.30
2017-08-24T02:10:54.590Z,80.00
2017-08-24T02:13:22.711Z,80.20
2017-08-24T02:15:50.831Z,79.60
2017-08-24T02:18:18.916Z,80.80
2017-08-24T02:20:47.012Z,80.40
2017-08-24T02:23:15.125Z,80.40
2017-08-24T02:25:43.218Z,79.50
2017-08-24T02:28:11.300Z,79.60
2017-08-24T02:30:40.316Z,80.00
2017-08-24T02:33:08.423Z,79.80
2017-08-24T02:35:36.530Z,80.20
2017-08-24T02:38:04.603Z,79.90
2017-08-24T02:40:32.699Z,80.00
2017-08-24T02:43:01.706Z,81.00
2017-08-24T02:45:29.787Z,81.30
2017-08-24T02:47:57.896Z,81.00
2017-08-24T02:50:26.003Z,81.30
2017-08-24T02:52:54.103Z,81.40
2017-08-24T02:55:22.191Z,81.30
2017-08-24T02:57:51.208Z,81.60
2017-08-24T03:00:19.298Z,82.40
2017-08-24T03:02:47.411Z,81.70
2017-08-24T03:05:15.503Z,82.30
2017-08-24T03:07:45.301Z,82.50
2017-08-24T03:10:13.408Z,82.30
2017-08-24T03:12:41.492Z,83.00
2017-08-24T03:15:09.616Z,83.70
2017-08-24T03:17:37.724Z,83.50
2017-08-24T03:20:05.828Z,82.80
2017-08-24T03:22:33.932Z,83.00
2017-08-24T03:25:02.076Z,83.50
2017-08-24T03:27:30.184Z,83.40
2017-08-24T03:29:58.288Z,84.20
2017-08-24T03:32:27.326Z,83.00
2017-08-24T03:34:56.343Z,84.20
2017-08-24T03:37:24.456Z,84.20
2017-08-24T03:39:52.573Z,83.90
2017-08-24T03:42:20.684Z,83.00
2017-08-24T03:44:48.779Z,83.70
2017-08-24T03:47:16.870Z,84.70
2017-08-24T03:49:44.960Z,84.20
2017-08-24T03:52:13.952Z,84.30
2017-08-24T03:54:42.055Z,83.70
2017-08-24T03:57:10.135Z,83.90
2017-08-24T03:59:38.217Z,85.30
2017-08-24T04:02:06.312Z,84.00
2017-08-24T04:04:34.408Z,84.80
2017-08-24T04:07:02.500Z,84.80
2017-08-24T04:09:30.600Z,84.60
2017-08-24T04:11:58.722Z,85.30
2017-08-24T04:14:26.804Z,84.70
2017-08-24T04:16:54.887Z,85.30
2017-08-24T04:19:24.056Z,84.80
2017-08-24T04:21:52.131Z,84.90
2017-08-24T04:24:20.232Z,85.30
2017-08-24T04:26:49.223Z,85.80
2017-08-24T04:29:18.232Z,85.40
2017-08-24T04:31:46.325Z,86.00
2017-08-24T04:34:14.406Z,86.30
2017-08-24T04:36:42.503Z,86.10
2017-08-24T04:39:10.596Z,85.70
2017-08-24T04:41:39.629Z,85.50
2017-08-24T04:44:07.710Z,86.20
2017-08-24T04:46:35.783Z,86.80
2017-08-24T04:49:03.888Z,86.10
2017-08-24T04:51:31.968Z,86.00
2017-08-24T04:54:00.071Z,86.60
2017-08-24T04:56:28.150Z,86.00
2017-08-24T04:58:56.246Z,86.10
2017-08-24T05:01:24.327Z,86.30
2017-08-24T05:03:52.460Z,86.50
2017-08-24T05:06:20.560Z,86.40
2017-08-24T05:08:48.631Z,86.60
2017-08-24T05:11:16.706Z,86.90
2017-08-24T05:13:44.806Z,86.90
2017-08-24T05:16:12.907Z,86.40
2017-08-24T05:18:41.004Z,86.60
2017-08-24T05:21:09.120Z,86.30
2017-08-24T05:23:37.190Z,86.80
2017-08-24T05:26:05.299Z,86.90
2017-08-24T05:28:33.403Z,85.90
2017-08-24T05:31:01.502Z,87.60
2017-08-24T05:33:29.575Z,86.90
2017-08-24T05:35:57.687Z,86.30
2017-08-24T05:38:25.767Z,85.80
2017-08-24T05:40:53.869Z,86.60
2017-08-24T05:43:21.944Z,87.10
2017-08-24T05:45:51.035Z,87.10
2017-08-24T05:48:19.167Z,86.30
2017-08-24T05:50:47.251Z,86.40
2017-08-24T05:53:15.366Z,86.30
2017-08-24T05:55:43.502Z,86.60
2017-08-24T05:58:11.585Z,86.70
2017-08-24T06:00:40.607Z,86.10
2017-08-24T06:03:08.733Z,85.30
2017-08-24T06:05:36.828Z,86.20
2017-08-24T06:08:04.935Z,86.10
2017-08-24T06:10:33.040Z,85.70
2017-08-24T06:13:01.130Z,85.80
2017-08-24T06:15:30.163Z,86.00
2017-08-24T06:17:59.204Z,85.80
2017-08-24T06:20:27.277Z,86.20
2017-08-24T06:22:55.382Z,85.50
2017-08-24T06:25:23.467Z,85.90
2017-08-24T06:27:51.536Z,86.70
2017-08-24T06:30:19.648Z,86.10
2017-08-24T06:32:47.732Z,86.00
2017-08-24T06:35:15.827Z,85.70
2017-08-24T06:37:43.913Z,85.20
2017-08-24T06:40:12.031Z,86.40
2017-08-24T06:42:40.134Z,85.90
2017-08-24T06:45:08.222Z,86.10
2017-08-24T06:47:36.319Z,85.90
2017-08-24T06:50:04.456Z,85.40
2017-08-24T06:52:32.575Z,84.90
2017-08-24T06:55:00.665Z,84.50
2017-08-24T06:57:28.780Z,85.40
2017-08-24T06:59:57.792Z,85.80
2017-08-24T07:02:25.904Z,85.20
2017-08-24T07:04:54.004Z,85.10
2017-08-24T07:07:22.089Z,86.00
2017-08-24T07:09:51.091Z,85.40
2017-08-24T07:12:19.183Z,85.40
2017-08-24T07:14:47.286Z,87.10
2017-08-24T07:17:15.388Z,85.20
2017-08-24T07:19:43.464Z,84.40
2017-08-24T07:22:11.576Z,84.70
2017-08-24T07:24:39.670Z,84.70
2017-08-24T07:27:07.775Z,84.40
2017-08-24T07:29:35.860Z,84.80
2017-08-24T07:32:03.967Z,84.70
2017-08-24T07:34:32.056Z,84.80
2017-08-24T07:37:00.159Z,84.60
2017-08-24T07:39:28.268Z,84.60
2017-08-24T07:41:56.372Z,85.10
2017-08-24T07:44:24.476Z,84.50
2017-08-24T07:46:52.562Z,84.30
2017-08-24T07:49:20.663Z,84.20
2017-08-24T07:51:49.658Z,84.40
2017-08-24T07:54:18.666Z,85.30
2017-08-24T07:56:46.784Z,84.50
2017-08-24T07:59:14.897Z,84.30
2017-08-24T08:01:43.007Z,84.40
2017-08-24T08:04:11.093Z,84.50
2017-08-24T08:06:40.135Z,84.40
2017-08-24T08:09:08.233Z,83.90
2017-08-24T08:11:36.319Z,83.30
2017-08-24T08:14:04.427Z,83.10
2017-08-24T08:16:32.498Z,82.80
2017-08-24T08:19:00.587Z,83.80
2017-08-24T08:21:28.687Z,83.50
2017-08-24T08:23:56.779Z,83.80
2017-08-24T08:26:24.888Z,83.40
2017-08-24T08:28:52.979Z,82.70
2017-08-24T08:31:22.047Z,82.90
2017-08-24T08:33:50.143Z,84.10
2017-08-24T08:36:18.245Z,83.50
2017-08-24T08:38:46.328Z,83.50
2017-08-24T08:41:14.447Z,82.00
2017-08-24T08:43:42.546Z,82.70
2017-08-24T08:46:10.639Z,82.50
2017-08-24T08:48:38.736Z,83.60
2017-08-24T08:51:06.826Z,84.60
2017-08-24T08:53:34.920Z,83.40
2017-08-24T08:56:04.923Z,82.70
2017-08-24T08:58:33.007Z,82.40
2017-08-24T09:01:01.151Z,82.20
2017-08-24T09:03:29.246Z,82.90
2017-08-24T09:05:58.271Z,82.40
2017-08-24T09:08:26.342Z,81.80
2017-08-24T09:10:54.442Z,81.30
2017-08-24T09:13:22.522Z,81.90
2017-08-24T09:15:50.640Z,81.30
2017-08-24T09:18:19.655Z,81.80
2017-08-24T09:20:47.732Z,82.00
2017-08-24T09:23:15.844Z,82.20
2017-08-24T09:25:43.928Z,80.30
2017-08-24T09:28:12.036Z,81.50
2017-08-24T09:30:40.115Z,81.10
2017-08-24T09:33:08.204Z,79.80
2017-08-24T09:35:36.307Z,80.20
2017-08-24T09:38:04.394Z,79.40
2017-08-24T09:40:33.400Z,80.10
2017-08-24T09:43:01.506Z,79.30
2017-08-24T09:45:29.607Z,79.70
2017-08-24T09:47:57.731Z,78.80
2017-08-24T09:50:25.811Z,78.60
2017-08-24T09:52:53.945Z,78.90
2017-08-24T09:55:22.036Z,79.40
2017-08-24T09:57:50.164Z,79.20
2017-08-24T10:00:18.251Z,78.50
2017-08-24T10:02:46.344Z,78.00
2017-08-24T10:05:14.452Z,78.00
2017-08-24T10:07:42.537Z,78.00
2017-08-24T10:10:10.607Z,78.00
2017-08-24T10:12:38.748Z,78.40
2017-08-24T10:15:06.849Z,76.80
2017-08-24T10:17:34.937Z,76.90
2017-08-24T10:20:03.041Z,75.90
2017-08-24T10:22:32.042Z,78.80
2017-08-24T10:25:01.058Z,77.40
2017-08-24T10:27:30.058Z,76.00
2017-08-24T10:29:58.204Z,76.80
2017-08-24T10:32:26.242Z,74.90
2017-08-24T10:34:54.330Z,76.30
2017-08-24T10:37:22.516Z,76.20
2017-08-24T10:39:50.663Z,75.80
2017-08-24T10:42:18.772Z,76.50
2017-08-24T10:44:46.882Z,75.00
2017-08-24T10:47:14.995Z,76.10
2017-08-24T10:49:43.074Z,75.30
2017-08-24T10:52:11.976Z,75.80
2017-08-24T10:54:40.074Z,75.90
2017-08-24T10:57:08.184Z,75.50
2017-08-24T10:59:36.283Z,75.30
2017-08-24T11:02:04.372Z,76.10
2017-08-24T11:04:32.515Z,76.00
2017-08-24T11:07:00.589Z,76.10
2017-08-24T11:09:28.683Z,76.40
2017-08-24T11:11:58.702Z,74.50
2017-08-24T11:14:26.792Z,72.90
2017-08-24T11:16:54.929Z,73.40
2017-08-24T11:19:23.048Z,73.30
2017-08-24T11:21:51.165Z,74.50
2017-08-24T11:24:19.256Z,70.70
2017-08-24T11:26:47.347Z,71.40
2017-08-24T11:29:15.429Z,72.40
2017-08-24T11:31:43.535Z,71.80
2017-08-24T11:34:11.616Z,72.00
2017-08-24T11:36:39.714Z,70.70
2017-08-24T11:39:07.799Z,70.50
2017-08-24T11:41:35.868Z,71.80
2017-08-24T11:44:03.975Z,72.90
2017-08-24T11:46:32.106Z,72.60
2017-08-24T11:49:00.147Z,69.90
2017-08-24T11:51:28.248Z,69.20
2017-08-24T11:53:56.367Z,71.40
2017-08-24T11:56:24.488Z,69.20
2017-08-24T11:58:52.583Z,70.20
2017-08-24T12:01:20.680Z,68.80
2017-08-24T12:03:48.787Z,68.30
2017-08-24T12:06:16.874Z,69.40
2017-08-24T12:08:44.947Z,67.80
2017-08-24T12:11:13.047Z,69.70
2017-08-24T12:13:41.135Z,69.40
2017-08-24T12:16:09.232Z,67.50
2017-08-24T12:18:38.210Z,68.80
2017-08-24T12:21:06.323Z,67.50
2017-08-24T12:23:34.404Z,68.60
2017-08-24T12:26:03.396Z,69.50
2017-08-24T12:28:31.498Z,70.60
2017-08-24T12:30:59.581Z,69.40
2017-08-24T12:33:27.690Z,66.80
2017-08-24T12:35:55.771Z,68.20
2017-08-24T12:38:24.784Z,68.90
2017-08-24T12:40:52.887Z,68.30
2017-08-24T12:43:20.959Z,65.60
2017-08-24T12:45:49.068Z,65.60
2017-08-24T12:48:17.159Z,64.10
2017-08-24T12:50:45.249Z,63.90
2017-08-24T12:53:13.326Z,61.40
2017-08-24T12:55:41.664Z,61.50
2017-08-24T12:58:09.751Z,62.20
2017-08-24T13:00:37.849Z,65.30
2017-08-24T13:03:05.955Z,62.80
2017-08-24T13:05:34.032Z,63.40
2017-08-24T13:08:03.043Z,64.90
2017-08-24T13:10:31.138Z,63.10
2017-08-24T13:12:59.207Z,63.80
2017-08-24T13:15:27.329Z,64.70
2017-08-24T13:17:55.428Z,65.20
2017-08-24T13:20:23.523Z,68.10
2017-08-24T13:22:51.644Z,66.30
2017-08-24T13:25:19.732Z,63.30
2017-08-24T13:30:28.374Z,64.90
2017-08-24T13:32:56.474Z,63.70
2017-08-24T13:35:24.554Z,58.50
2017-08-24T13:37:52.651Z,60.30
2017-08-24T13:40:23.663Z,56.70
2017-08-24T13:42:51.762Z,56.80
2017-08-24T13:45:20.112Z,56.90
2017-08-24T13:47:48.210Z,58.60
2017-08-24T13:50:16.283Z,56.70
2017-08-24T13:52:44.385Z,58.00
2017-08-24T13:55:13.383Z,56.70
2017-08-24T13:57:41.484Z,57.90
2017-08-24T14:00:09.559Z,58.10
2017-08-24T14:02:37.655Z,59.80
2017-08-24T14:05:05.763Z,59.30
2017-08-24T14:07:33.846Z,61.30
2017-08-24T14:10:01.972Z,60.10
2017-08-24T14:12:30.092Z,60.30
2017-08-24T14:14:58.189Z,61.10
2017-08-24T14:17:26.303Z,62.00
2017-08-24T14:19:54.404Z,57.60
2017-08-24T14:22:22.515Z,57.20
2017-08-24T14:24:50.588Z,56.10
2017-08-24T14:27:18.698Z,56.40
2017-08-24T14:29:46.768Z,58.60
2017-08-24T14:32:15.768Z,57.20
2017-08-24T14:34:44.772Z,56.50
2017-08-24T14:37:12.859Z,57.50
2017-08-24T14:39:40.944Z,59.60
2017-08-24T14:42:09.052Z,57.90
2017-08-24T14:44:37.131Z,55.70
2017-08-24T14:47:05.242Z,54.70
2017-08-24T14:49:33.316Z,56.10
2017-08-24T14:52:01.467Z,53.60
2017-08-24T14:54:30.449Z,55.70
2017-08-24T14:56:58.542Z,54.10
2017-08-24T14:59:26.643Z,56.00
2017-08-24T15:01:54.728Z,55.90
2017-08-24T15:04:22.831Z,56.30
2017-08-24T15:06:50.919Z,54.50
2017-08-24T15:09:19.019Z,54.50
2017-08-24T15:11:48.043Z,55.00
2017-08-24T15:14:16.147Z,55.20
2017-08-24T15:16:44.240Z,56.70
2017-08-24T15:19:12.337Z,55.30
2017-08-24T15:21:40.439Z,53.20
2017-08-24T15:24:08.527Z,53.90
2017-08-24T15:26:36.644Z,53.70
2017-08-24T15:29:04.734Z,54.40
2017-08-24T15:31:32.838Z,54.40
2017-08-24T15:34:00.961Z,56.20
2017-08-24T15:36:29.042Z,57.10
2017-08-24T15:38:57.171Z,55.70
2017-08-24T15:41:25.288Z,57.30
2017-08-24T15:43:53.391Z,57.20
2017-08-24T15:46:21.486Z,59.00
2017-08-24T15:48:49.577Z,57.70
2017-08-24T15:51:17.700Z,57.40
2017-08-24T15:53:46.707Z,58.50
2017-08-24T15:56:14.802Z,57.90
2017-08-24T15:58:42.917Z,58.20
2017-08-24T16:01:11.023Z,58.80
2017-08-24T16:03:39.130Z,58.20
2017-08-24T16:06:08.144Z,59.30
2017-08-24T16:08:37.166Z,59.60
2017-08-24T16:11:06.200Z,57.00
2017-08-24T16:13:34.275Z,56.60
2017-08-24T16:16:02.374Z,56.30
2017-08-24T16:18:30.454Z,58.20
2017-08-24T16:20:58.569Z,58.20
2017-08-24T16:23:26.675Z,57.40
2017-08-24T16:25:54.748Z,57.20
2017-08-24T16:28:22.878Z,58.30
2017-08-24T16:30:50.986Z,57.60
2017-08-24T16:33:25.791Z,56.00
2017-08-24T16:36:05.327Z,61.50
2017-08-24T16:38:37.205Z,56.50
2017-08-24T16:41:05.276Z,58.90
2017-08-24T16:43:33.373Z,50.00
2017-08-24T16:46:01.472Z,51.90
2017-08-24T16:48:29.553Z,53.80
2017-08-24T16:50:57.658Z,56.70
2017-08-24T16:53:25.736Z,56.50
2017-08-24T16:55:53.852Z,56.60
2017-08-24T16:58:25.841Z,57.40
2017-08-24T17:00:54.005Z,57.20
2017-08-24T17:03:22.118Z,57.10
2017-08-24T17:05:50.242Z,58.30
2017-08-24T17:08:18.368Z,58.20
2017-08-24T17:10:47.443Z,56.10
2017-08-24T17:13:16.438Z,57.90
2017-08-24T17:15:44.543Z,58.90
2017-08-24T17:18:12.765Z,71.00
2017-08-24T17:20:41.097Z,58.50
2017-08-24T17:23:09.225Z,66.70
2017-08-24T17:25:37.339Z,52.60
2017-08-24T17:28:05.424Z,55.10
2017-08-24T17:30:33.783Z,56.70
2017-08-24T17:33:05.844Z,57.60
2017-08-24T17:35:35.549Z,56.90
2017-08-24T17:38:20.265Z,58.30
2017-08-24T17:43:03.387Z,59.20
2017-08-24T17:45:31.495Z,59.40
2017-08-24T17:47:59.591Z,59.90
2017-08-24T17:50:27.675Z,62.30
2017-08-24T17:52:55.794Z,62.00
2017-08-24T17:55:23.877Z,63.50
2017-08-24T17:57:52.843Z,61.00
2017-08-24T18:00:20.940Z,59.90
2017-08-24T18:02:49.061Z,59.10
2017-08-24T18:05:17.137Z,60.70
2017-08-24T18:07:45.232Z,60.60
2017-08-24T18:10:13.327Z,62.40
2017-08-24T18:12:41.421Z,63.60
2017-08-24T18:15:11.419Z,62.90
2017-08-24T18:17:39.508Z,64.70
2017-08-24T18:20:07.601Z,66.90
2017-08-24T18:22:35.738Z,68.40
2017-08-24T18:25:03.815Z,69.80
2017-08-24T18:27:31.916Z,70.40
2017-08-24T18:30:00.001Z,71.50
2017-08-24T18:32:28.117Z,72.00
2017-08-24T18:34:56.206Z,70.90
2017-08-24T18:37:24.307Z,71.70
2017-08-24T18:39:52.408Z,69.10
2017-08-24T18:42:20.505Z,72.90
2017-08-24T18:44:50.221Z,73.10
2017-08-24T18:47:18.328Z,74.30
2017-08-24T18:49:46.413Z,73.20
2017-08-24T18:52:14.510Z,74.80
2017-08-24T18:54:42.910Z,76.00
2017-08-24T18:57:10.999Z,76.30
2017-08-24T18:59:39.080Z,77.00
2017-08-24T19:02:07.198Z,74.40
2017-08-24T19:04:35.304Z,77.30
2017-08-24T19:07:04.110Z,77.40
2017-08-24T19:09:32.204Z,78.10
2017-08-24T19:12:00.321Z,78.40
2017-08-24T19:14:28.443Z,79.90
2017-08-24T19:16:56.519Z,79.60
2017-08-24T19:19:24.615Z,77.70
2017-08-24T19:21:52.686Z,79.20
2017-08-24T19:24:20.784Z,80.90
2017-08-24T19:26:49.796Z,81.10
2017-08-24T19:29:17.881Z,81.00
2017-08-24T19:31:45.963Z,80.10
2017-08-24T19:34:14.071Z,81.60
2017-08-24T19:36:42.179Z,81.10
2017-08-24T19:39:10.313Z,81.50
2017-08-24T19:41:38.416Z,81.50
2017-08-24T19:44:07.399Z,81.50
2017-08-24T19:46:36.408Z,81.50
2017-08-24T19:49:04.488Z,82.40
2017-08-24T19:51:32.564Z,83.30
2017-08-24T19:54:00.658Z,83.50
2017-08-24T19:56:28.730Z,83.00
2017-08-24T19:58:56.849Z,84.40
2017-08-24T20:01:24.923Z,83.50
2017-08-24T20:03:53.045Z,83.60
2017-08-24T20:06:21.125Z,85.60
2017-08-24T20:08:49.215Z,83.20
2017-08-24T20:11:17.329Z,84.40
2017-08-24T20:13:45.404Z,83.20
2017-08-24T20:16:13.505Z,84.60
2017-08-24T20:18:41.592Z,84.60
2017-08-24T20:21:09.692Z,84.20
2017-08-24T20:23:37.794Z,82.20
2017-08-24T20:26:06.541Z,84.30
2017-08-24T20:28:34.622Z,84.10
2017-08-24T20:31:02.707Z,84.20
2017-08-24T20:33:30.804Z,83.90
2017-08-24T20:35:58.891Z,84.50
2017-08-24T20:38:26.986Z,85.50
2017-08-24T20:40:56.014Z,85.20
2017-08-24T20:43:24.110Z,84.50
2017-08-24T20:45:52.214Z,85.00
2017-08-24T20:48:20.320Z,85.20
2017-08-24T20:50:48.953Z,84.40
2017-08-24T20:53:17.059Z,85.10
2017-08-24T20:55:45.160Z,84.70
2017-08-24T20:58:13.260Z,83.50
2017-08-24T21:00:41.356Z,85.10
2017-08-24T21:03:09.456Z,85.10
2017-08-24T21:05:38.457Z,84.60
2017-08-24T21:08:06.551Z,85.10
2017-08-24T21:10:34.646Z,85.20
2017-08-24T21:13:02.729Z,85.20
2017-08-24T21:15:30.815Z,85.60
2017-08-24T21:17:58.932Z,86.30
2017-08-24T21:20:27.614Z,86.30
2017-08-24T21:22:56.652Z,86.90
2017-08-24T21:25:24.755Z,86.20
2017-08-24T21:27:52.868Z,86.30
2017-08-24T21:30:20.960Z,86.50
2017-08-24T21:32:49.051Z,85.90
2017-08-24T21:35:17.149Z,86.20
2017-08-24T21:37:46.139Z,87.20
2017-08-24T21:40:15.146Z,86.30
2017-08-24T21:42:43.239Z,87.50
2017-08-24T21:45:11.311Z,87.40
2017-08-24T21:47:39.420Z,87.30
2017-08-24T21:50:07.497Z,87.10
2017-08-24T21:52:35.617Z,87.50
2017-08-24T21:55:03.700Z,88.00
2017-08-24T21:57:31.776Z,87.20
2017-08-24T21:59:59.898Z,87.70
2017-08-24T22:02:28.895Z,87.10
2017-08-24T22:04:56.975Z,87.10
2017-08-24T22:07:25.087Z,88.40
2017-08-24T22:09:54.106Z,88.40
2017-08-24T22:12:23.104Z,89.40
2017-08-24T22:14:51.179Z,89.00
2017-08-24T22:17:19.287Z,88.90
2017-08-24T22:19:48.315Z,89.00
2017-08-24T22:22:16.432Z,89.50
2017-08-24T22:24:44.515Z,89.40
2017-08-24T22:27:12.617Z,88.60
2017-08-24T22:29:40.695Z,88.90
2017-08-24T22:32:08.791Z,88.60
2017-08-24T22:34:36.878Z,89.00
2017-08-24T22:37:04.968Z,88.10
2017-08-24T22:39:33.079Z,89.50
2017-08-24T22:42:02.081Z,89.30
2017-08-24T22:44:30.208Z,90.00
2017-08-24T22:46:58.292Z,89.80
2017-08-24T22:49:26.393Z,89.50
2017-08-24T22:51:54.496Z,90.20
2017-08-24T22:54:28.002Z,90.30
2017-08-24T23:00:03.779Z,90.30
2017-08-24T23:02:37.295Z,90.30
2017-08-24T23:05:05.573Z,90.40
2017-08-24T23:07:36.909Z,90.10
2017-08-24T23:10:05.036Z,90.00
2017-08-24T23:12:33.127Z,90.30
2017-08-24T23:15:01.247Z,90.20
2017-08-24T23:17:29.319Z,90.10
2017-08-24T23:19:57.412Z,89.90
2017-08-24T23:22:25.516Z,90.30
2017-08-24T23:24:53.592Z,89.60
2017-08-24T23:27:21.706Z,90.00
2017-08-24T23:29:49.794Z,91.20
2017-08-24T23:32:18.816Z,90.50
2017-08-24T23:34:50.258Z,90.70
2017-08-24T23:37:18.352Z,90.50
2017-08-24T23:39:46.471Z,90.40
2017-08-24T23:42:14.554Z,90.30
2017-08-24T23:44:43.588Z,90.60
2017-08-24T23:47:11.667Z,90.50
2017-08-24T23:49:39.743Z,90.80
2017-08-24T23:52:07.835Z,90.80
2017-08-24T23:54:35.975Z,91.00
2017-08-24T23:57:04.974Z,90.60
2017-08-24T23:59:33.080Z,90.70
